createdAt,value
2023-02-16T00:00:47.003Z,73.40
2023-02-16T00:05:51.864Z,73.40
2023-02-16T00:11:27.129Z,73.40
2023-02-16T00:16:31.992Z,73.40
2023-02-16T00:21:35.550Z,73.50
2023-02-16T00:26:39.132Z,73.40
2023-02-16T00:31:44.028Z,73.40
2023-02-16T00:36:47.542Z,73.40
2023-02-16T00:41:54.042Z,73.40
2023-02-16T00:47:01.343Z,73.50
2023-02-16T00:52:32.971Z,73.40
2023-02-16T00:57:42.429Z,73.40
2023-02-16T01:02:50.918Z,73.50
2023-02-16T01:08:14.013Z,73.40
2023-02-16T01:13:17.842Z,73.40
2023-02-16T01:18:23.331Z,73.40
2023-02-16T01:23:29.434Z,73.40
2023-02-16T01:28:37.306Z,73.40
2023-02-16T01:33:43.448Z,73.50
2023-02-16T01:38:46.908Z,73.40
2023-02-16T01:43:59.649Z,73.40
2023-02-16T01:49:04.770Z,73.30
2023-02-16T01:54:14.880Z,73.30
2023-02-16T01:59:31.577Z,73.40
2023-02-16T02:05:02.262Z,73.40
2023-02-16T02:10:12.522Z,73.40
2023-02-16T02:15:21.408Z,73.40
2023-02-16T02:21:04.098Z,73.30
2023-02-16T02:26:57.252Z,73.40
2023-02-16T02:32:09.608Z,73.30
2023-02-16T02:37:26.002Z,73.40
2023-02-16T02:42:40.189Z,73.40
2023-02-16T02:47:47.831Z,73.40
2023-02-16T02:52:52.063Z,73.40
2023-02-16T02:58:15.122Z,73.40
2023-02-16T03:03:25.177Z,73.40
2023-02-16T03:08:33.834Z,73.40
2023-02-16T03:13:44.338Z,73.40
2023-02-16T03:19:06.510Z,73.40
2023-02-16T03:24:32.559Z,73.40
2023-02-16T03:29:38.575Z,73.40
2023-02-16T03:34:42.074Z,73.40
2023-02-16T03:40:03.286Z,73.40
2023-02-16T03:45:10.002Z,73.40
2023-02-16T03:50:13.927Z,73.40
2023-02-16T03:55:17.661Z,73.40
2023-02-16T04:00:23.163Z,73.50
2023-02-16T04:05:26.934Z,73.40
2023-02-16T04:10:30.740Z,73.40
2023-02-16T04:15:35.934Z,73.50
2023-02-16T04:20:39.555Z,73.40
2023-02-16T04:25:42.955Z,73.40
2023-02-16T04:30:47.899Z,73.50
2023-02-16T04:35:51.410Z,73.40
2023-02-16T04:40:54.842Z,73.40
2023-02-16T04:45:59.831Z,73.40
2023-02-16T04:51:05.941Z,73.40
2023-02-16T04:56:11.378Z,73.50
2023-02-16T05:01:23.310Z,73.40
2023-02-16T05:06:26.936Z,73.40
2023-02-16T05:11:47.924Z,73.40
2023-02-16T05:16:54.036Z,73.40
2023-02-16T05:21:57.456Z,73.40
2023-02-16T05:27:00.868Z,73.40
2023-02-16T05:32:06.396Z,73.40
2023-02-16T05:37:09.857Z,73.40
2023-02-16T05:42:13.692Z,73.40
2023-02-16T05:47:18.478Z,73.40
2023-02-16T05:52:21.905Z,73.40
2023-02-16T05:57:25.314Z,73.30
2023-02-16T06:02:30.193Z,73.40
2023-02-16T06:07:33.639Z,73.40
2023-02-16T06:12:37.121Z,73.40
2023-02-16T06:17:44.552Z,73.40
2023-02-16T06:22:48.086Z,73.40
2023-02-16T06:27:52.735Z,73.40
2023-02-16T06:32:57.793Z,73.30
2023-02-16T06:38:01.282Z,73.40
2023-02-16T06:43:04.831Z,73.40
2023-02-16T06:48:09.633Z,73.30
2023-02-16T06:53:13.095Z,73.30
2023-02-16T06:58:16.542Z,73.40
2023-02-16T07:03:21.361Z,73.40
2023-02-16T07:08:25.292Z,73.40
2023-02-16T07:13:28.684Z,73.40
2023-02-16T07:18:33.977Z,73.40
2023-02-16T07:23:37.382Z,73.40
2023-02-16T07:28:40.827Z,73.40
2023-02-16T07:33:46.573Z,73.40
2023-02-16T07:38:50.170Z,73.40
2023-02-16T07:43:53.622Z,73.40
2023-02-16T07:48:58.420Z,73.40
2023-02-16T07:54:02.295Z,73.30
2023-02-16T07:59:06.171Z,73.30
2023-02-16T08:04:11.103Z,73.40
2023-02-16T08:09:14.502Z,73.50
2023-02-16T08:14:17.924Z,73.40
2023-02-16T08:19:22.695Z,73.40
2023-02-16T08:24:26.428Z,73.50
2023-02-16T08:29:29.830Z,73.40
2023-02-16T08:34:36.017Z,73.40
2023-02-16T08:39:39.420Z,73.40
2023-02-16T08:44:43.361Z,73.40
2023-02-16T08:49:48.458Z,73.40
2023-02-16T08:54:52.842Z,73.30
2023-02-16T09:00:10.317Z,73.30
2023-02-16T09:05:16.560Z,73.30
2023-02-16T09:10:22.326Z,73.30
2023-02-16T09:15:25.866Z,73.40
2023-02-16T09:20:30.680Z,73.40
2023-02-16T09:25:36.994Z,73.40
2023-02-16T09:30:41.154Z,73.30
2023-02-16T09:35:46.131Z,73.30
2023-02-16T09:40:59.534Z,73.30
2023-02-16T09:46:03.949Z,73.30
2023-02-16T09:51:11.405Z,73.30
2023-02-16T09:56:27.286Z,73.30
2023-02-16T10:01:40.223Z,73.30
2023-02-16T10:07:03.979Z,73.30
2023-02-16T10:12:13.760Z,73.30
2023-02-16T10:17:28.426Z,73.30
2023-02-16T10:22:40.040Z,73.30
2023-02-16T10:27:46.982Z,73.30
2023-02-16T10:32:59.222Z,73.20
2023-02-16T10:38:12.857Z,73.30
2023-02-16T10:43:24.752Z,73.20
2023-02-16T10:48:28.955Z,73.20
2023-02-16T10:53:42.832Z,73.20
2023-02-16T10:58:46.859Z,73.10
2023-02-16T11:03:53.113Z,73.10
2023-02-16T11:09:01.955Z,73.10
2023-02-16T11:14:10.077Z,73.10
2023-02-16T11:19:22.166Z,73.10
2023-02-16T11:24:30.148Z,73.00
2023-02-16T11:29:34.620Z,73.10
2023-02-16T11:34:43.497Z,73.10
2023-02-16T11:39:55.121Z,73.10
2023-02-16T11:45:02.246Z,73.10
2023-02-16T11:50:23.179Z,73.10
2023-02-16T11:55:33.386Z,73.00
2023-02-16T12:00:36.869Z,73.00
2023-02-16T12:05:58.269Z,73.00
2023-02-16T12:11:25.463Z,73.00
2023-02-16T12:16:38.491Z,73.00
2023-02-16T12:21:47.890Z,73.00
2023-02-16T12:26:57.929Z,72.90
2023-02-16T12:32:31.713Z,72.90
2023-02-16T12:37:45.828Z,72.90
2023-02-16T12:43:22.055Z,72.90
2023-02-16T12:48:41.784Z,73.00
2023-02-16T12:53:53.754Z,72.90
2023-02-16T12:59:18.154Z,73.00
2023-02-16T13:04:39.485Z,72.90
2023-02-16T13:09:54.799Z,73.00
2023-02-16T13:15:12.310Z,73.00
2023-02-16T13:20:21.508Z,73.00
2023-02-16T13:26:10.716Z,73.00
2023-02-16T13:31:34.685Z,73.00
2023-02-16T13:37:03.850Z,73.00
2023-02-16T13:42:46.955Z,73.00
2023-02-16T13:47:54.889Z,72.90
2023-02-16T13:53:17.689Z,72.90
2023-02-16T13:58:33.730Z,72.90
2023-02-16T14:03:40.285Z,73.00
2023-02-16T14:08:44.527Z,73.00
2023-02-16T14:13:51.977Z,73.10
2023-02-16T14:19:01.348Z,73.00
2023-02-16T14:24:08.641Z,72.90
2023-02-16T14:29:18.841Z,73.00
2023-02-16T14:34:30.023Z,73.00
2023-02-16T14:39:36.426Z,73.00
2023-02-16T14:45:13.132Z,73.00
2023-02-16T14:50:39.068Z,73.10
2023-02-16T14:56:06.827Z,73.10
2023-02-16T15:01:17.611Z,73.20
2023-02-16T15:06:33.574Z,73.20
2023-02-16T15:12:00.225Z,73.20
2023-02-16T15:17:08.100Z,73.20
2023-02-16T15:22:22.608Z,73.20
2023-02-16T15:27:28.941Z,73.30
2023-02-16T15:32:33.745Z,73.30
2023-02-16T15:37:40.459Z,73.30
2023-02-16T15:42:45.940Z,73.20
2023-02-16T15:47:49.428Z,73.30
2023-02-16T15:52:55.071Z,73.30
2023-02-16T15:57:58.980Z,73.30
2023-02-16T16:03:03.116Z,73.30
2023-02-16T16:08:12.279Z,73.30
2023-02-16T16:13:22.904Z,73.30
2023-02-16T16:18:50.359Z,73.30
2023-02-16T16:24:03.638Z,73.40
2023-02-16T16:29:32.834Z,73.40
2023-02-16T16:34:40.447Z,73.40
2023-02-16T16:40:01.489Z,73.40
2023-02-16T16:45:08.723Z,73.40
2023-02-16T16:50:35.731Z,73.50
2023-02-16T16:55:41.303Z,73.50
2023-02-16T17:00:44.768Z,73.50
2023-02-16T17:05:48.417Z,73.50
2023-02-16T17:10:53.403Z,73.50
2023-02-16T17:16:01.997Z,73.50
2023-02-16T17:21:06.054Z,73.50
2023-02-16T17:26:12.116Z,73.50
2023-02-16T17:31:16.006Z,73.50
2023-02-16T17:36:20.707Z,73.50
2023-02-16T17:41:30.249Z,73.50
2023-02-16T17:46:34.173Z,73.60
2023-02-16T17:51:38.559Z,73.50
2023-02-16T17:56:47.390Z,73.50
2023-02-16T18:01:50.849Z,73.60
2023-02-16T18:06:54.266Z,73.60
2023-02-16T18:11:59.066Z,73.60
2023-02-16T18:17:02.677Z,73.60
2023-02-16T18:22:06.356Z,73.50
2023-02-16T18:27:11.790Z,73.60
2023-02-16T18:32:15.211Z,73.60
2023-02-16T18:37:18.661Z,74.40
2023-02-16T18:42:23.478Z,73.60
2023-02-16T18:47:26.886Z,73.60
2023-02-16T18:52:30.368Z,73.60
2023-02-16T18:57:35.252Z,73.70
2023-02-16T19:02:40.856Z,73.70
2023-02-16T19:07:44.458Z,73.70
2023-02-16T19:12:49.237Z,73.70
2023-02-16T19:17:53.143Z,73.60
2023-02-16T19:22:57.154Z,73.70
2023-02-16T19:28:02.017Z,73.60
2023-02-16T19:33:05.583Z,73.70
2023-02-16T19:38:09.043Z,73.70
2023-02-16T19:43:14.031Z,73.70
2023-02-16T19:48:17.465Z,73.70
2023-02-16T19:53:20.882Z,73.70
2023-02-16T19:58:27.434Z,73.70
2023-02-16T20:03:30.872Z,73.70
2023-02-16T20:08:34.292Z,73.70
2023-02-16T20:13:39.386Z,73.70
2023-02-16T20:18:43.718Z,73.70
2023-02-16T20:23:48.247Z,73.70
2023-02-16T20:28:54.074Z,73.70
2023-02-16T20:33:58.722Z,74.50
2023-02-16T20:39:02.347Z,73.80
2023-02-16T20:44:07.978Z,73.70
2023-02-16T20:49:13.418Z,73.70
2023-02-16T20:54:16.919Z,73.80
2023-02-16T20:59:21.784Z,73.70
2023-02-16T21:04:25.611Z,73.80
2023-02-16T21:09:29.072Z,73.70
2023-02-16T21:14:33.879Z,73.80
2023-02-16T21:19:38.507Z,73.70
2023-02-16T21:24:43.320Z,73.70
2023-02-16T21:29:48.313Z,73.80
2023-02-16T21:34:51.849Z,73.80
2023-02-16T21:40:13.135Z,73.80
2023-02-16T21:45:18.181Z,73.80
2023-02-16T21:50:21.607Z,73.80
2023-02-16T21:55:42.467Z,73.80
2023-02-16T22:00:52.818Z,73.80
2023-02-16T22:05:56.331Z,73.80
2023-02-16T22:11:07.875Z,73.70
2023-02-16T22:16:16.691Z,73.70
2023-02-16T22:21:20.122Z,73.80
2023-02-16T22:26:28.807Z,73.80
2023-02-16T22:31:34.496Z,73.80
2023-02-16T22:36:39.039Z,73.80
2023-02-16T22:41:42.771Z,73.80
2023-02-16T22:46:47.565Z,73.90
2023-02-16T22:51:52.104Z,73.80
2023-02-16T22:56:55.535Z,73.80
2023-02-16T23:02:00.579Z,73.80
2023-02-16T23:07:04.001Z,73.80
2023-02-16T23:12:07.528Z,73.80
2023-02-16T23:17:12.508Z,73.80
2023-02-16T23:22:16.129Z,73.90
2023-02-16T23:27:19.588Z,73.80
2023-02-16T23:32:24.805Z,73.90
2023-02-16T23:37:31.835Z,73.90
2023-02-16T23:42:35.524Z,73.80
2023-02-16T23:47:40.305Z,73.90
2023-02-16T23:52:43.792Z,73.90
2023-02-16T23:57:47.790Z,73.90
